Santurtzi, Spain
Current Conditions -  °F | °C
As of 1:00 PM on Friday 24 Oct 2014 (Local Time) from LEBB Reporting Station
Clear Clear  
Wind Chill: 77°   Ceiling: Unl
Heat Index: 78°   Visibility: 6mi
Dew Point: 46°   Wind: 2mph
Humidity: 34%   Direction: NA
Pressure: 30.09"   Gusts: NA
Location:  43.33°N, 3.03°W
Report Text: LEBB 241100Z VRB02KT CAVOK 25/08 Q1019 NOSIG
Loading
Personal Weather Stations






























Interactive Weather Map
Tropical Storm Tracking
New forecast layout! Learn more

10-Day Weather Forecast

Advertisements
Track Severe Weather on mobile